createdAt,value
2022-12-06T00:01:33.911Z,14.30
2022-12-06T00:04:12.365Z,15.02
2022-12-06T00:06:42.873Z,14.70
2022-12-06T00:09:17.565Z,15.23
2022-12-06T00:11:44.567Z,15.02
2022-12-06T00:14:12.343Z,16.02
2022-12-06T00:16:39.205Z,16.08
2022-12-06T00:19:06.692Z,15.55
2022-12-06T00:21:36.036Z,14.60
2022-12-06T00:24:06.607Z,13.40
2022-12-06T00:26:36.612Z,17.80
2022-12-06T00:29:04.615Z,17.40
2022-12-06T00:31:34.640Z,17.13
2022-12-06T00:34:02.210Z,16.63
2022-12-06T00:36:34.751Z,15.77
2022-12-06T00:39:04.170Z,14.90
2022-12-06T00:41:31.122Z,15.85
2022-12-06T00:43:58.820Z,15.27
2022-12-06T00:46:30.870Z,14.10
2022-12-06T00:48:59.701Z,14.40
2022-12-06T00:51:28.785Z,14.23
2022-12-06T00:53:55.779Z,14.77
2022-12-06T00:56:23.149Z,14.18
2022-12-06T00:58:49.930Z,13.60
2022-12-06T01:01:25.500Z,13.48
2022-12-06T01:03:58.106Z,14.13
2022-12-06T01:06:28.564Z,14.15
2022-12-06T01:08:57.868Z,13.15
2022-12-06T01:11:25.700Z,12.93
2022-12-06T01:13:53.128Z,13.13
2022-12-06T01:16:26.032Z,13.15
2022-12-06T01:18:55.573Z,12.18
2022-12-06T01:21:23.103Z,12.10
2022-12-06T01:23:50.449Z,12.43
2022-12-06T01:26:28.989Z,12.75
2022-12-06T01:28:57.086Z,12.68
2022-12-06T01:31:24.084Z,12.95
2022-12-06T01:33:51.021Z,12.32
2022-12-06T01:36:20.100Z,12.98
2022-12-06T01:38:54.774Z,11.63
2022-12-06T01:41:23.887Z,11.90
2022-12-06T01:43:51.932Z,12.73
2022-12-06T01:46:28.367Z,13.32
2022-12-06T01:49:16.829Z,12.32
2022-12-06T01:51:53.858Z,12.90
2022-12-06T01:54:21.751Z,12.13
2022-12-06T01:56:51.382Z,12.90
2022-12-06T01:59:19.402Z,13.77
2022-12-06T02:01:47.107Z,15.20
2022-12-06T02:04:14.967Z,14.85
2022-12-06T02:06:43.294Z,13.60
2022-12-06T02:09:11.059Z,13.48
2022-12-06T02:11:38.368Z,13.82
2022-12-06T02:14:09.300Z,14.20
2022-12-06T02:16:57.744Z,13.50
2022-12-06T02:19:36.354Z,14.30
2022-12-06T02:22:13.558Z,14.10
2022-12-06T02:24:55.361Z,13.32
2022-12-06T02:27:46.105Z,12.55
2022-12-06T02:30:31.498Z,13.20
2022-12-06T02:33:05.750Z,13.30
2022-12-06T02:35:39.303Z,13.25
2022-12-06T02:38:25.859Z,12.73
2022-12-06T02:41:00.631Z,12.90
2022-12-06T02:43:39.871Z,12.45
2022-12-06T02:46:09.531Z,12.65
2022-12-06T02:48:38.512Z,12.75
2022-12-06T02:51:09.319Z,14.68
2022-12-06T02:53:38.938Z,13.73
2022-12-06T02:56:06.078Z,12.38
2022-12-06T02:58:37.743Z,12.32
2022-12-06T03:01:15.113Z,16.23
2022-12-06T03:04:07.331Z,14.07
2022-12-06T03:06:45.985Z,12.00
2022-12-06T03:09:22.924Z,10.65
2022-12-06T03:11:59.648Z,11.77
2022-12-06T03:14:30.641Z,11.10
2022-12-06T03:17:13.022Z,11.48
2022-12-06T03:19:41.472Z,11.27
2022-12-06T03:22:11.871Z,11.60
2022-12-06T03:24:40.757Z,11.95
2022-12-06T03:27:15.750Z,11.48
2022-12-06T03:29:47.763Z,12.35
2022-12-06T03:32:17.101Z,10.93
2022-12-06T03:34:47.698Z,12.25
2022-12-06T03:37:18.089Z,12.98
2022-12-06T03:39:56.898Z,12.30
2022-12-06T03:42:23.938Z,12.15
2022-12-06T03:44:50.865Z,12.90
2022-12-06T03:47:23.821Z,12.40
2022-12-06T03:50:01.583Z,12.80
2022-12-06T03:52:29.993Z,12.80
2022-12-06T03:54:56.694Z,12.57
2022-12-06T03:57:23.793Z,12.88
2022-12-06T03:59:50.553Z,13.00
2022-12-06T04:02:17.347Z,11.88
2022-12-06T04:04:44.149Z,12.82
2022-12-06T04:07:11.829Z,12.48
2022-12-06T04:09:56.141Z,13.48
2022-12-06T04:12:43.070Z,13.50
2022-12-06T04:15:10.786Z,15.27
2022-12-06T04:17:57.320Z,14.93
2022-12-06T04:20:25.213Z,15.65
2022-12-06T04:23:04.191Z,14.35
2022-12-06T04:25:35.667Z,14.27
2022-12-06T04:28:22.118Z,15.02
2022-12-06T04:31:07.523Z,15.13
2022-12-06T04:33:52.817Z,15.13
2022-12-06T04:36:38.448Z,14.40
2022-12-06T04:39:05.885Z,14.50
2022-12-06T04:41:51.045Z,14.35
2022-12-06T04:44:18.121Z,15.75
2022-12-06T04:46:45.386Z,15.80
2022-12-06T04:49:12.119Z,16.80
2022-12-06T04:51:38.877Z,15.02
2022-12-06T04:54:07.270Z,15.07
2022-12-06T04:56:34.342Z,15.65
2022-12-06T04:59:01.142Z,14.70
2022-12-06T05:01:27.915Z,15.10
2022-12-06T05:03:54.676Z,14.40
2022-12-06T05:06:21.405Z,14.77
2022-12-06T05:08:48.117Z,14.45
2022-12-06T05:11:14.773Z,15.02
2022-12-06T05:13:41.577Z,15.50
2022-12-06T05:16:09.881Z,15.70
2022-12-06T05:18:36.710Z,14.93
2022-12-06T05:21:08.498Z,16.15
2022-12-06T05:23:36.020Z,16.40
2022-12-06T05:26:05.874Z,16.85
2022-12-06T05:28:34.193Z,16.00
2022-12-06T05:31:01.231Z,16.10
2022-12-06T05:33:28.559Z,15.57
2022-12-06T05:35:55.498Z,16.10
2022-12-06T05:38:23.122Z,17.42
2022-12-06T05:40:49.959Z,17.90
2022-12-06T05:43:17.084Z,15.90
2022-12-06T05:45:44.005Z,15.43
2022-12-06T05:48:10.809Z,15.13
2022-12-06T05:50:37.496Z,16.17
2022-12-06T05:53:04.329Z,15.90
2022-12-06T05:55:31.252Z,17.00
2022-12-06T05:57:58.005Z,16.08
2022-12-06T06:00:24.908Z,16.25
2022-12-06T06:02:51.678Z,15.43
2022-12-06T06:05:18.678Z,15.38
2022-12-06T06:07:45.585Z,15.35
2022-12-06T06:10:12.709Z,15.90
2022-12-06T06:12:40.033Z,14.70
2022-12-06T06:15:07.363Z,15.85
2022-12-06T06:17:35.420Z,15.40
2022-12-06T06:20:07.964Z,16.17
2022-12-06T06:22:36.610Z,16.77
2022-12-06T06:25:04.011Z,18.33
2022-12-06T06:27:33.975Z,15.98
2022-12-06T06:30:01.090Z,16.25
2022-12-06T06:32:27.981Z,15.48
2022-12-06T06:34:54.775Z,16.98
2022-12-06T06:37:21.477Z,16.05
2022-12-06T06:39:48.143Z,15.73
2022-12-06T06:42:14.863Z,15.80
2022-12-06T06:44:41.533Z,15.48
2022-12-06T06:47:08.238Z,15.57
2022-12-06T06:49:34.925Z,16.75
2022-12-06T06:52:01.658Z,17.10
2022-12-06T06:54:28.668Z,16.65
2022-12-06T06:56:56.801Z,15.88
2022-12-06T06:59:26.410Z,15.43
2022-12-06T07:01:53.258Z,15.57
2022-12-06T07:04:20.093Z,15.43
2022-12-06T07:06:47.057Z,15.65
2022-12-06T07:09:13.721Z,16.42
2022-12-06T07:11:40.426Z,16.15
2022-12-06T07:14:07.101Z,16.48
2022-12-06T07:16:33.963Z,15.88
2022-12-06T07:19:03.456Z,17.25
2022-12-06T07:21:34.296Z,15.85
2022-12-06T07:24:01.146Z,15.75
2022-12-06T07:26:29.017Z,16.77
2022-12-06T07:28:57.844Z,16.80
2022-12-06T07:31:27.112Z,17.70
2022-12-06T07:33:56.910Z,17.23
2022-12-06T07:36:24.863Z,18.30
2022-12-06T07:38:54.007Z,18.67
2022-12-06T07:41:40.818Z,18.17
2022-12-06T07:44:29.242Z,17.88
2022-12-06T07:46:56.878Z,17.55
2022-12-06T07:49:24.242Z,16.60
2022-12-06T07:51:51.233Z,17.40
2022-12-06T07:54:17.973Z,17.50
2022-12-06T07:56:44.728Z,17.38
2022-12-06T07:59:12.080Z,18.23
2022-12-06T08:01:39.546Z,17.10
2022-12-06T08:04:07.280Z,17.63
2022-12-06T08:06:34.867Z,17.52
2022-12-06T08:09:01.931Z,17.33
2022-12-06T08:11:29.041Z,17.52
2022-12-06T08:13:56.080Z,17.02
2022-12-06T08:16:23.066Z,16.58
2022-12-06T08:18:49.801Z,16.05
2022-12-06T08:21:16.637Z,14.98
2022-12-06T08:23:43.375Z,15.13
2022-12-06T08:26:14.279Z,17.35
2022-12-06T08:28:42.881Z,18.13
2022-12-06T08:31:16.124Z,16.52
2022-12-06T08:33:42.883Z,18.55
2022-12-06T08:36:15.172Z,19.17
2022-12-06T08:38:41.946Z,16.42
2022-12-06T08:41:28.216Z,14.48
2022-12-06T08:43:55.782Z,14.52
2022-12-06T08:46:22.878Z,14.38
2022-12-06T08:48:50.092Z,15.18
2022-12-06T08:51:16.884Z,15.13
2022-12-06T08:53:43.872Z,14.05
2022-12-06T08:56:11.140Z,14.95
2022-12-06T08:58:37.942Z,14.82
2022-12-06T09:01:19.508Z,13.93
2022-12-06T09:03:46.371Z,13.93
2022-12-06T09:06:13.125Z,13.52
2022-12-06T09:08:40.537Z,14.93
2022-12-06T09:11:08.419Z,13.13
2022-12-06T09:13:36.934Z,14.30
2022-12-06T09:16:08.405Z,12.90
2022-12-06T09:18:35.555Z,13.27
2022-12-06T09:21:11.616Z,13.25
2022-12-06T09:23:39.272Z,13.43
2022-12-06T09:26:06.633Z,12.63
2022-12-06T09:28:37.063Z,12.38
2022-12-06T09:31:05.486Z,12.00
2022-12-06T09:33:32.541Z,12.88
2022-12-06T09:36:03.130Z,11.30
2022-12-06T09:38:31.036Z,10.93
2022-12-06T09:41:08.218Z,11.13
2022-12-06T09:43:54.546Z,13.35
2022-12-06T09:46:34.084Z,12.55
2022-12-06T09:49:25.452Z,11.98
2022-12-06T09:52:04.239Z,11.98
2022-12-06T09:55:00.874Z,13.40
2022-12-06T09:57:37.770Z,11.07
2022-12-06T10:00:19.006Z,12.27
2022-12-06T10:02:52.101Z,10.75
2022-12-06T10:05:30.400Z,9.73
2022-12-06T10:08:24.952Z,9.60
2022-12-06T10:11:08.460Z,9.07
2022-12-06T10:13:58.092Z,8.57
2022-12-06T10:16:34.189Z,8.02
2022-12-06T10:19:17.375Z,7.53
2022-12-06T10:22:04.988Z,7.82
2022-12-06T10:24:51.205Z,8.05
2022-12-06T10:27:33.547Z,9.15
2022-12-06T10:30:14.324Z,9.07
2022-12-06T10:32:50.657Z,8.85
2022-12-06T10:35:40.475Z,9.00
2022-12-06T10:38:25.800Z,9.70
2022-12-06T10:41:05.104Z,10.27
2022-12-06T10:43:53.798Z,11.00
2022-12-06T10:46:50.172Z,11.88
2022-12-06T10:49:30.838Z,11.18
2022-12-06T10:52:24.866Z,10.90
2022-12-06T10:55:05.253Z,11.15
2022-12-06T10:57:52.313Z,11.00
2022-12-06T11:00:22.655Z,11.70
2022-12-06T11:03:08.054Z,11.90
2022-12-06T11:05:48.699Z,11.98
2022-12-06T11:08:25.820Z,12.23
2022-12-06T11:10:55.270Z,12.85
2022-12-06T11:13:48.057Z,14.73
2022-12-06T11:16:23.197Z,14.27
2022-12-06T11:18:51.414Z,13.65
2022-12-06T11:21:20.984Z,15.13
2022-12-06T11:24:15.502Z,16.90
2022-12-06T11:26:45.442Z,16.83
2022-12-06T11:29:14.440Z,14.85
2022-12-06T11:31:49.447Z,14.38
2022-12-06T11:34:36.279Z,14.95
2022-12-06T11:37:04.527Z,13.68
2022-12-06T11:39:33.398Z,13.55
2022-12-06T11:42:03.100Z,14.88
2022-12-06T11:44:46.296Z,13.32
2022-12-06T11:47:19.991Z,12.85
2022-12-06T11:49:47.536Z,13.35
2022-12-06T11:52:22.077Z,14.32
2022-12-06T11:54:55.047Z,13.25
2022-12-06T11:57:28.186Z,16.77
2022-12-06T12:00:15.573Z,14.13
2022-12-06T12:02:44.798Z,14.10
2022-12-06T12:05:34.537Z,13.85
2022-12-06T12:08:19.409Z,13.65
2022-12-06T12:10:59.198Z,15.32
2022-12-06T12:13:45.416Z,15.38
2022-12-06T12:16:24.913Z,15.32
2022-12-06T12:18:59.035Z,15.48
2022-12-06T12:21:36.325Z,15.27
2022-12-06T12:24:04.695Z,15.38
2022-12-06T12:26:38.041Z,15.50
2022-12-06T12:29:17.150Z,15.18
2022-12-06T12:32:01.509Z,14.88
2022-12-06T12:34:30.023Z,15.00
2022-12-06T12:36:59.532Z,15.57
2022-12-06T12:39:38.471Z,15.35
2022-12-06T12:42:25.078Z,14.68
2022-12-06T12:44:56.875Z,14.38
2022-12-06T12:47:23.809Z,15.30
2022-12-06T12:50:18.663Z,17.35
2022-12-06T12:52:46.199Z,14.80
2022-12-06T12:55:19.055Z,14.60
2022-12-06T12:57:48.869Z,14.55
2022-12-06T13:00:22.493Z,14.38
2022-12-06T13:03:00.491Z,13.37
2022-12-06T13:05:33.735Z,13.90
2022-12-06T13:08:22.724Z,12.73
2022-12-06T13:10:57.168Z,13.38
2022-12-06T13:13:30.659Z,12.55
2022-12-06T13:16:00.265Z,11.43
2022-12-06T13:18:32.145Z,10.68
2022-12-06T13:21:06.595Z,9.98
2022-12-06T13:26:35.001Z,9.88
2022-12-06T13:29:07.492Z,10.52
2022-12-06T13:31:40.114Z,9.20
2022-12-06T13:34:23.292Z,10.00
2022-12-06T13:36:52.536Z,10.18
2022-12-06T13:39:31.247Z,9.00
2022-12-06T13:42:18.127Z,8.38
2022-12-06T13:44:47.582Z,8.02
2022-12-06T13:47:26.685Z,8.48
2022-12-06T13:49:54.358Z,7.70
2022-12-06T13:52:43.308Z,6.95
2022-12-06T13:55:25.475Z,8.45
2022-12-06T13:58:18.334Z,6.00
2022-12-06T14:00:49.111Z,6.18
2022-12-06T14:03:19.016Z,5.30
2022-12-06T14:06:15.282Z,6.22
2022-12-06T14:08:57.050Z,5.82
2022-12-06T14:11:36.589Z,5.35
2022-12-06T14:14:14.854Z,4.90
2022-12-06T14:17:11.271Z,5.18
2022-12-06T14:19:46.326Z,5.18
2022-12-06T14:22:29.338Z,5.60
2022-12-06T14:25:01.881Z,5.00
2022-12-06T14:27:31.938Z,5.65
2022-12-06T14:30:13.258Z,5.60
2022-12-06T14:32:45.839Z,5.30
2022-12-06T14:35:24.784Z,5.25
2022-12-06T14:37:56.933Z,5.35
2022-12-06T14:40:45.395Z,5.03
2022-12-06T14:43:17.924Z,4.82
2022-12-06T14:45:45.695Z,5.70
2022-12-06T14:48:13.500Z,5.47
2022-12-06T14:50:50.686Z,5.70
2022-12-06T14:53:34.135Z,5.63
2022-12-06T14:56:06.670Z,5.53
2022-12-06T14:58:36.075Z,5.22
2022-12-06T15:01:15.039Z,5.63
2022-12-06T15:03:42.445Z,5.22
2022-12-06T15:06:22.034Z,5.10
2022-12-06T15:09:05.671Z,5.18
2022-12-06T15:11:55.057Z,5.85
2022-12-06T15:14:27.381Z,5.32
2022-12-06T15:17:03.180Z,6.13
2022-12-06T15:19:32.912Z,5.30
2022-12-06T15:22:00.350Z,5.10
2022-12-06T15:24:28.620Z,4.70
2022-12-06T15:26:55.465Z,5.07
2022-12-06T15:29:22.828Z,5.95
2022-12-06T15:31:53.002Z,5.82
2022-12-06T15:34:37.070Z,5.43
2022-12-06T15:37:36.940Z,6.50
2022-12-06T15:39:50.589Z,5.55
2022-12-06T15:42:20.409Z,6.55
2022-12-06T15:44:49.852Z,6.68
2022-12-06T15:47:18.238Z,6.90
2022-12-06T15:49:45.524Z,7.10
2022-12-06T15:52:15.880Z,6.63
2022-12-06T15:54:42.643Z,6.45
2022-12-06T15:57:09.712Z,6.50
2022-12-06T15:59:36.516Z,5.95
2022-12-06T16:02:03.751Z,5.65
2022-12-06T16:04:32.616Z,4.90
2022-12-06T16:06:59.285Z,5.00
2022-12-06T16:09:26.028Z,5.53
2022-12-06T16:11:52.789Z,6.15
2022-12-06T16:14:19.471Z,5.28
2022-12-06T16:16:46.335Z,5.88
2022-12-06T16:19:13.086Z,7.78
2022-12-06T16:21:58.070Z,7.18
2022-12-06T16:24:24.787Z,12.45
2022-12-06T16:26:51.911Z,12.68
2022-12-06T16:29:24.802Z,13.80
2022-12-06T16:31:52.871Z,21.42
2022-12-06T16:34:19.822Z,18.88
2022-12-06T16:37:13.303Z,16.27
2022-12-06T16:39:40.046Z,25.15
2022-12-06T16:42:06.811Z,18.60
2022-12-06T16:44:33.574Z,18.13
2022-12-06T16:47:00.466Z,19.08
2022-12-06T16:49:48.482Z,17.60
2022-12-06T16:52:16.878Z,16.90
2022-12-06T16:54:44.173Z,17.65
2022-12-06T16:57:14.816Z,17.65
2022-12-06T16:59:42.669Z,18.23
2022-12-06T17:02:26.722Z,15.27
2022-12-06T17:04:53.612Z,14.68
2022-12-06T17:07:20.274Z,15.20
2022-12-06T17:09:47.118Z,16.23
2022-12-06T17:12:15.181Z,14.88
2022-12-06T17:14:42.498Z,16.45
2022-12-06T17:17:14.864Z,16.50
2022-12-06T17:19:42.614Z,15.48
2022-12-06T17:22:10.703Z,12.70
2022-12-06T17:24:37.748Z,13.05
2022-12-06T17:27:04.666Z,14.60
2022-12-06T17:29:31.371Z,13.23
2022-12-06T17:31:58.212Z,14.75
2022-12-06T17:34:26.020Z,27.95
2022-12-06T17:36:53.283Z,22.65
2022-12-06T17:39:21.474Z,21.88
2022-12-06T17:42:06.758Z,18.05
2022-12-06T17:44:34.113Z,19.00
2022-12-06T17:47:00.961Z,15.75
2022-12-06T17:49:28.634Z,17.33
2022-12-06T17:51:55.798Z,17.40
2022-12-06T17:54:22.596Z,19.73
2022-12-06T17:56:52.200Z,18.75
2022-12-06T17:59:21.369Z,18.25
2022-12-06T18:04:35.924Z,16.85
2022-12-06T18:07:02.726Z,20.27
2022-12-06T18:09:29.640Z,21.20
2022-12-06T18:11:56.712Z,24.77
2022-12-06T18:14:23.401Z,24.63
2022-12-06T18:16:50.324Z,25.52
2022-12-06T18:19:20.123Z,26.73
2022-12-06T18:21:47.640Z,25.73
2022-12-06T18:24:22.033Z,21.20
2022-12-06T18:26:50.565Z,26.20
2022-12-06T18:29:20.475Z,22.38
2022-12-06T18:31:47.384Z,20.67
2022-12-06T18:34:14.640Z,20.05
2022-12-06T18:36:41.431Z,18.90
2022-12-06T18:39:15.070Z,17.83
2022-12-06T18:41:43.227Z,16.85
2022-12-06T18:44:10.446Z,17.13
2022-12-06T18:46:38.888Z,16.35
2022-12-06T18:49:06.648Z,16.13
2022-12-06T18:51:35.333Z,18.42
2022-12-06T18:54:04.583Z,17.65
2022-12-06T18:56:32.932Z,19.17
2022-12-06T18:59:01.332Z,17.75
2022-12-06T19:01:30.615Z,17.60
2022-12-06T19:04:03.038Z,17.95
2022-12-06T19:06:36.241Z,18.20
2022-12-06T19:09:17.301Z,17.58
2022-12-06T19:11:45.906Z,17.20
2022-12-06T19:14:13.648Z,16.83
2022-12-06T19:16:43.299Z,17.52
2022-12-06T19:19:16.639Z,16.10
2022-12-06T19:21:45.113Z,12.57
2022-12-06T19:24:13.382Z,17.13
2022-12-06T19:26:40.828Z,17.60
2022-12-06T19:29:07.957Z,21.40
2022-12-06T19:31:35.195Z,18.67
2022-12-06T19:34:02.016Z,28.83
2022-12-06T19:36:30.991Z,19.27
2022-12-06T19:38:58.319Z,24.75
2022-12-06T19:41:25.989Z,23.05
2022-12-06T19:44:10.988Z,20.25
2022-12-06T19:46:38.774Z,19.75
2022-12-06T19:49:06.930Z,18.58
2022-12-06T19:51:38.467Z,18.27
2022-12-06T19:54:07.073Z,15.82
2022-12-06T19:56:34.763Z,15.90
2022-12-06T19:59:11.448Z,16.88
2022-12-06T20:01:46.812Z,16.08
2022-12-06T20:04:19.795Z,15.75
2022-12-06T20:06:46.791Z,14.23
2022-12-06T20:09:13.821Z,14.82
2022-12-06T20:11:59.690Z,15.02
2022-12-06T20:14:26.871Z,14.43
2022-12-06T20:16:54.291Z,13.70
2022-12-06T20:19:21.877Z,14.63
2022-12-06T20:21:49.298Z,14.05
2022-12-06T20:24:21.110Z,14.68
2022-12-06T20:26:50.455Z,16.17
2022-12-06T20:29:18.301Z,15.32
2022-12-06T20:31:45.136Z,15.73
2022-12-06T20:34:15.366Z,14.25
2022-12-06T20:36:43.720Z,15.48
2022-12-06T20:39:19.350Z,16.00
2022-12-06T20:41:46.608Z,17.30
2022-12-06T20:44:13.354Z,15.25
2022-12-06T20:46:40.325Z,16.58
2022-12-06T20:49:07.168Z,16.23
2022-12-06T20:51:34.447Z,15.57
2022-12-06T20:54:03.994Z,16.00
2022-12-06T20:56:37.411Z,16.13
2022-12-06T20:59:05.050Z,15.20
2022-12-06T21:01:35.256Z,16.05
2022-12-06T21:04:02.343Z,16.05
2022-12-06T21:06:29.148Z,17.02
2022-12-06T21:08:55.990Z,16.50
2022-12-06T21:11:24.525Z,17.02
2022-12-06T21:13:56.316Z,14.30
2022-12-06T21:16:28.855Z,14.57
2022-12-06T21:19:04.751Z,13.60
2022-12-06T21:21:34.633Z,13.68
2022-12-06T21:24:03.654Z,12.85
2022-12-06T21:26:32.203Z,12.85
2022-12-06T21:28:59.414Z,12.32
2022-12-06T21:31:29.095Z,12.07
2022-12-06T21:33:56.631Z,11.93
2022-12-06T21:36:23.953Z,11.23
2022-12-06T21:38:50.916Z,11.55
2022-12-06T21:41:17.698Z,10.60
2022-12-06T21:43:44.426Z,10.93
2022-12-06T21:46:20.173Z,9.23
2022-12-06T21:48:55.918Z,10.05
2022-12-06T21:51:24.276Z,11.10
2022-12-06T21:53:51.587Z,9.77
2022-12-06T21:56:20.735Z,9.68
2022-12-06T21:58:48.789Z,10.45
2022-12-06T22:01:18.282Z,9.57
2022-12-06T22:03:49.315Z,9.90
2022-12-06T22:06:17.027Z,9.75
2022-12-06T22:08:45.270Z,9.30
2022-12-06T22:11:19.693Z,9.52
2022-12-06T22:16:15.301Z,9.20
2022-12-06T22:18:45.963Z,8.90
2022-12-06T22:21:21.924Z,8.98
2022-12-06T22:23:49.031Z,8.85
2022-12-06T22:26:20.991Z,8.98
2022-12-06T22:28:48.860Z,8.73
2022-12-06T22:31:20.071Z,8.45
2022-12-06T22:33:47.704Z,8.13
2022-12-06T22:36:15.020Z,8.05
2022-12-06T22:38:42.283Z,8.57
2022-12-06T22:41:10.837Z,8.07
2022-12-06T22:43:37.970Z,8.70
2022-12-06T22:46:15.650Z,8.13
2022-12-06T22:48:43.678Z,8.10
2022-12-06T22:51:13.464Z,8.68
2022-12-06T22:53:42.044Z,8.60
2022-12-06T22:56:09.137Z,7.78
2022-12-06T22:58:36.155Z,8.40
2022-12-06T23:01:18.688Z,8.27
2022-12-06T23:03:47.224Z,8.60
2022-12-06T23:06:15.401Z,8.23
2022-12-06T23:08:43.154Z,9.27
2022-12-06T23:11:15.954Z,7.90
2022-12-06T23:13:43.629Z,8.05
2022-12-06T23:16:22.989Z,8.15
2022-12-06T23:18:50.565Z,8.07
2022-12-06T23:21:23.450Z,8.27
2022-12-06T23:23:53.698Z,7.97
2022-12-06T23:26:25.148Z,7.60
2022-12-06T23:28:52.157Z,8.93
2022-12-06T23:31:21.947Z,8.02
2022-12-06T23:33:56.555Z,8.27
2022-12-06T23:36:26.710Z,8.35
2022-12-06T23:42:41.243Z,8.30
2022-12-06T23:45:08.326Z,8.00
2022-12-06T23:47:34.930Z,9.32
2022-12-06T23:50:01.808Z,8.77
2022-12-06T23:52:28.672Z,9.30
2022-12-06T23:54:55.303Z,8.80
2022-12-06T23:57:22.049Z,9.63
2022-12-06T23:59:48.709Z,8.32
